Terminal Aerodrome Forecast
Issued by NWS Melbourne, FL

Home | Current Version | Previous Version | Text Only | Print | Product List | Glossary On
Versions: 1 2 3 4 5 6 7 8 9 10 11 12 13 14
000
FTUS42 KMLB 221140
TAFMLB
TAF
KMLB 221140Z 2212/2312 14006KT P6SM SCT025
     FM221400 14010KT P6SM VCSH SCT025 SCT250
     FM221800 12014G20KT P6SM SCT035 SCT250
     FM230000 13009KT P6SM FEW250=

USA.gov is the U.S. government's official web portal to all federal, state and local government web resources and services.